createdAt,value
2022-11-12T00:00:20.773Z,8.06
2022-11-12T00:03:27.561Z,7.99
2022-11-12T00:06:33.936Z,7.94
2022-11-12T00:09:38.510Z,7.92
2022-11-12T00:12:44.843Z,7.87
2022-11-12T00:15:49.402Z,7.88
2022-11-12T00:18:55.731Z,7.84
2022-11-12T00:22:00.425Z,7.84
2022-11-12T00:25:08.319Z,7.79
2022-11-12T00:28:14.817Z,7.80
2022-11-12T00:31:21.165Z,7.78
2022-11-12T00:34:25.858Z,7.74
2022-11-12T00:37:32.166Z,7.68
2022-11-12T00:40:36.788Z,7.66
2022-11-12T00:43:42.988Z,7.62
2022-11-12T00:46:49.761Z,7.61
2022-11-12T00:49:56.158Z,7.59
2022-11-12T00:53:00.723Z,7.57
2022-11-12T00:56:09.454Z,7.54
2022-11-12T00:59:16.090Z,7.55
2022-11-12T01:02:22.395Z,7.52
2022-11-12T01:05:26.982Z,7.49
2022-11-12T01:08:34.083Z,7.43
2022-11-12T01:11:42.273Z,7.42
2022-11-12T01:14:48.533Z,7.41
2022-11-12T01:17:54.889Z,7.36
2022-11-12T01:21:01.386Z,7.29
2022-11-12T01:24:08.786Z,7.24
2022-11-12T01:27:15.142Z,7.23
2022-11-12T01:30:19.918Z,7.20
2022-11-12T01:33:26.199Z,7.15
2022-11-12T01:36:35.703Z,7.16
2022-11-12T01:39:42.060Z,7.16
2022-11-12T01:42:52.626Z,7.18
2022-11-12T01:46:01.385Z,7.16
2022-11-12T01:49:12.362Z,7.15
2022-11-12T01:52:23.021Z,7.12
2022-11-12T01:55:33.867Z,7.05
2022-11-12T01:58:41.663Z,7.01
2022-11-12T02:01:48.023Z,6.97
2022-11-12T02:04:53.020Z,6.95
2022-11-12T02:08:02.110Z,6.89
2022-11-12T02:11:17.382Z,6.89
2022-11-12T02:14:24.468Z,6.89
2022-11-12T02:17:30.753Z,6.91
2022-11-12T02:20:39.061Z,6.92
2022-11-12T02:23:45.352Z,6.91
2022-11-12T02:26:55.465Z,6.90
2022-11-12T02:30:01.811Z,6.87
2022-11-12T02:33:06.467Z,6.84
2022-11-12T02:36:13.039Z,6.78
2022-11-12T02:39:19.894Z,6.78
2022-11-12T02:42:26.198Z,6.78
2022-11-12T02:45:34.808Z,6.78
2022-11-12T02:48:41.328Z,6.74
2022-11-12T02:51:47.717Z,6.76
2022-11-12T02:54:52.318Z,6.76
2022-11-12T02:58:01.762Z,6.72
2022-11-12T03:01:08.429Z,6.74
2022-11-12T03:04:14.817Z,6.75
2022-11-12T03:07:19.499Z,6.77
2022-11-12T03:10:26.162Z,6.77
2022-11-12T03:13:32.491Z,6.78
2022-11-12T03:16:37.074Z,6.79
2022-11-12T03:19:43.406Z,6.77
2022-11-12T03:22:55.912Z,6.78
2022-11-12T03:26:03.228Z,6.74
2022-11-12T03:29:09.556Z,6.73
2022-11-12T03:32:14.145Z,6.69
2022-11-12T03:35:20.593Z,6.62
2022-11-12T03:38:27.168Z,6.63
2022-11-12T03:41:33.815Z,6.63
2022-11-12T03:44:38.388Z,6.63
2022-11-12T03:47:46.887Z,6.61
2022-11-12T03:50:53.406Z,6.63
2022-11-12T03:53:59.811Z,6.63
2022-11-12T03:57:04.569Z,6.64
2022-11-12T04:00:13.289Z,6.61
2022-11-12T04:03:19.611Z,6.63
2022-11-12T04:06:41.722Z,6.64
2022-11-12T04:09:48.116Z,6.59
2022-11-12T04:13:12.144Z,6.58
2022-11-12T04:16:37.565Z,6.54
2022-11-12T04:20:01.235Z,6.53
2022-11-12T04:23:07.496Z,6.52
2022-11-12T04:26:26.160Z,6.51
2022-11-12T04:29:49.935Z,6.49
2022-11-12T04:32:57.036Z,6.46
2022-11-12T04:36:03.398Z,6.44
2022-11-12T04:39:09.874Z,6.43
2022-11-12T04:42:33.841Z,6.44
2022-11-12T04:45:42.047Z,6.44
2022-11-12T04:48:48.367Z,6.42
2022-11-12T04:52:08.011Z,6.40
2022-11-12T04:55:14.629Z,6.33
2022-11-12T04:58:21.326Z,6.34
2022-11-12T05:01:27.640Z,6.33
2022-11-12T05:04:32.183Z,6.32
2022-11-12T05:07:38.470Z,6.28
2022-11-12T05:10:43.078Z,6.30
2022-11-12T05:13:49.436Z,6.26
2022-11-12T05:16:53.962Z,6.26
2022-11-12T05:20:00.243Z,6.20
2022-11-12T05:23:07.420Z,6.19
2022-11-12T05:26:14.110Z,6.14
2022-11-12T05:29:21.042Z,6.14
2022-11-12T05:32:27.994Z,6.15
2022-11-12T05:35:34.292Z,6.15
2022-11-12T05:38:39.534Z,6.17
2022-11-12T05:42:11.303Z,6.14
2022-11-12T05:45:13.144Z,6.16
2022-11-12T05:48:24.203Z,6.17
2022-11-12T05:51:30.989Z,6.16
2022-11-12T06:07:12.181Z,5.80
2022-11-12T06:10:20.668Z,5.78
2022-11-12T06:13:28.885Z,5.80
2022-11-12T06:16:35.410Z,5.81
2022-11-12T06:19:41.800Z,5.83
2022-11-12T06:22:46.186Z,5.86
2022-11-12T06:25:52.320Z,5.87
2022-11-12T06:28:58.738Z,5.92
2022-11-12T06:32:05.159Z,5.94
2022-11-12T06:35:10.505Z,5.97
2022-11-12T06:38:16.672Z,5.97
2022-11-12T06:41:22.962Z,6.00
2022-11-12T06:44:27.462Z,6.03
2022-11-12T06:47:33.776Z,6.03
2022-11-12T06:50:38.385Z,6.08
2022-11-12T06:53:44.997Z,6.08
2022-11-12T06:56:51.503Z,6.13
2022-11-12T06:59:57.807Z,6.15
2022-11-12T07:03:06.617Z,6.19
2022-11-12T07:06:14.687Z,6.19
2022-11-12T07:09:21.363Z,6.25
2022-11-12T07:12:27.698Z,6.29
2022-11-12T07:15:32.359Z,6.33
2022-11-12T07:18:39.021Z,6.34
2022-11-12T07:21:45.092Z,6.41
2022-11-12T07:24:51.438Z,6.47
2022-11-12T07:27:56.415Z,6.52
2022-11-12T07:31:05.018Z,6.55
2022-11-12T07:34:11.409Z,6.64
2022-11-12T07:37:15.959Z,6.71
2022-11-12T07:40:22.533Z,6.75
2022-11-12T07:43:28.825Z,6.83
2022-11-12T07:46:33.552Z,6.88
2022-11-12T07:49:39.955Z,6.92
2022-11-12T07:52:44.685Z,7.02
2022-11-12T07:55:58.427Z,7.08
2022-11-12T07:59:06.004Z,7.18
2022-11-12T08:02:13.049Z,7.26
2022-11-12T08:05:21.544Z,7.34
2022-11-12T08:08:28.453Z,7.43
2022-11-12T08:11:35.303Z,7.52
2022-11-12T08:14:41.605Z,7.60
2022-11-12T08:17:46.281Z,7.70
2022-11-12T08:20:52.600Z,7.75
2022-11-12T08:23:57.205Z,7.87
2022-11-12T08:27:03.483Z,7.93
2022-11-12T08:30:12.246Z,8.04
2022-11-12T08:33:18.591Z,8.15
2022-11-12T08:36:23.210Z,8.25
2022-11-12T08:39:29.603Z,8.31
2022-11-12T08:42:34.260Z,8.45
2022-11-12T08:45:42.214Z,8.56
2022-11-12T08:48:48.492Z,8.72
2022-11-12T08:51:54.955Z,8.85
2022-11-12T08:55:01.318Z,8.98
2022-11-12T08:58:06.036Z,9.11
2022-11-12T09:01:12.361Z,9.20
2022-11-12T09:04:16.943Z,9.41
2022-11-12T09:07:48.918Z,9.62
2022-11-12T09:10:50.112Z,9.91
2022-11-12T09:13:57.294Z,10.16
2022-11-12T09:17:03.618Z,10.37
2022-11-12T09:20:09.059Z,10.58
2022-11-12T09:23:17.860Z,10.73
2022-11-12T09:26:24.305Z,10.96
2022-11-12T09:29:28.885Z,11.17
2022-11-12T09:32:35.370Z,11.32
2022-11-12T09:35:41.790Z,11.51
2022-11-12T09:38:48.106Z,11.66
2022-11-12T09:41:55.499Z,11.83
2022-11-12T09:45:08.948Z,11.94
2022-11-12T09:48:21.821Z,12.10
2022-11-12T09:51:33.997Z,12.28
2022-11-12T09:54:40.981Z,12.43
2022-11-12T09:57:47.607Z,12.56
2022-11-12T10:00:59.193Z,12.69
2022-11-12T10:04:17.901Z,12.81
2022-11-12T10:07:37.921Z,12.96
2022-11-12T10:10:48.566Z,13.06
2022-11-12T10:14:09.976Z,13.16
2022-11-12T10:17:28.834Z,13.27
2022-11-12T10:20:43.717Z,13.38
2022-11-12T10:23:54.273Z,13.52
2022-11-12T10:27:00.695Z,13.64
2022-11-12T10:30:14.887Z,13.73
2022-11-12T10:33:20.512Z,13.84
2022-11-12T10:36:31.526Z,13.92
2022-11-12T10:39:42.810Z,14.02
2022-11-12T10:43:00.900Z,14.06
2022-11-12T10:46:21.395Z,13.61
2022-11-12T10:49:27.720Z,13.23
2022-11-12T10:52:33.577Z,13.16
2022-11-12T10:55:55.406Z,13.54
2022-11-12T10:59:17.725Z,13.96
2022-11-12T11:02:23.422Z,14.28
2022-11-12T11:05:36.888Z,14.54
2022-11-12T11:08:45.179Z,14.74
2022-11-12T11:11:54.755Z,14.50
2022-11-12T11:15:20.113Z,14.11
2022-11-12T11:18:26.414Z,14.03
2022-11-12T11:21:58.819Z,14.51
2022-11-12T11:25:20.964Z,15.00
2022-11-12T11:28:34.694Z,15.09
2022-11-12T11:31:46.945Z,14.74
2022-11-12T11:35:03.226Z,14.48
2022-11-12T11:38:23.330Z,14.45
2022-11-12T11:41:45.778Z,14.98
2022-11-12T11:45:00.945Z,15.40
2022-11-12T11:48:14.983Z,15.26
2022-11-12T11:51:37.331Z,14.96
2022-11-12T11:55:03.144Z,14.93
2022-11-12T11:58:19.974Z,15.48
2022-11-12T12:01:33.808Z,15.82
2022-11-12T12:04:52.503Z,15.58
2022-11-12T12:08:04.080Z,15.33
2022-11-12T12:11:17.815Z,15.24
2022-11-12T12:14:42.793Z,15.34
2022-11-12T12:18:02.433Z,15.87
2022-11-12T12:21:15.730Z,16.31
2022-11-12T12:24:25.195Z,16.15
2022-11-12T12:27:36.047Z,15.84
2022-11-12T12:30:46.485Z,15.61
2022-11-12T12:33:56.448Z,15.49
2022-11-12T12:37:08.341Z,15.54
2022-11-12T12:40:22.289Z,16.07
2022-11-12T12:43:34.449Z,16.47
2022-11-12T12:46:45.686Z,16.25
2022-11-12T12:49:52.821Z,15.97
2022-11-12T12:53:07.250Z,15.80
2022-11-12T12:56:47.173Z,15.65
2022-11-12T12:59:52.865Z,15.55
2022-11-12T13:02:59.607Z,15.48
2022-11-12T13:06:23.074Z,15.41
2022-11-12T13:09:29.642Z,15.32
2022-11-12T13:13:04.664Z,15.23
2022-11-12T13:16:10.772Z,15.30
2022-11-12T13:19:27.581Z,15.81
2022-11-12T13:22:52.573Z,16.19
2022-11-12T13:26:35.511Z,16.09
2022-11-12T13:29:46.213Z,15.68
2022-11-12T13:32:59.130Z,15.45
2022-11-12T13:36:29.954Z,15.26
2022-11-12T13:39:38.338Z,15.08
2022-11-12T13:42:50.263Z,14.96
2022-11-12T13:46:00.405Z,14.84
2022-11-12T13:49:10.666Z,14.86
2022-11-12T13:52:19.917Z,15.34
2022-11-12T13:55:25.553Z,15.74
2022-11-12T13:58:33.444Z,15.91
2022-11-12T14:01:41.175Z,15.56
2022-11-12T14:04:47.154Z,15.19
2022-11-12T14:08:04.340Z,14.92
2022-11-12T14:11:25.144Z,14.69
2022-11-12T14:14:45.868Z,14.48
2022-11-12T14:17:59.508Z,14.31
2022-11-12T14:21:12.419Z,14.16
2022-11-12T14:24:18.137Z,14.15
2022-11-12T14:27:36.738Z,14.61
2022-11-12T14:30:47.653Z,15.02
2022-11-12T14:33:53.232Z,15.18
2022-11-12T14:36:59.221Z,14.79
2022-11-12T14:40:05.787Z,14.37
2022-11-12T14:43:27.387Z,14.03
2022-11-12T14:46:39.703Z,13.74
2022-11-12T14:49:49.160Z,13.50
2022-11-12T14:53:00.562Z,13.43
2022-11-12T14:56:08.604Z,13.84
2022-11-12T14:59:15.674Z,14.21
2022-11-12T15:02:36.053Z,14.47
2022-11-12T15:06:10.673Z,14.59
2022-11-12T15:09:21.986Z,14.45
2022-11-12T15:12:31.535Z,13.90
2022-11-12T15:15:38.674Z,13.41
2022-11-12T15:18:45.052Z,13.05
2022-11-12T15:21:53.374Z,12.86
2022-11-12T15:25:10.503Z,13.19
2022-11-12T15:28:22.188Z,13.49
2022-11-12T15:31:27.842Z,13.65
2022-11-12T15:34:48.087Z,13.73
2022-11-12T15:37:54.388Z,13.76
2022-11-12T15:41:00.993Z,13.76
2022-11-12T15:44:09.340Z,13.62
2022-11-12T15:47:21.890Z,13.01
2022-11-12T15:50:28.067Z,12.39
2022-11-12T15:53:32.080Z,11.93
2022-11-12T15:56:37.937Z,11.56
2022-11-12T15:59:44.803Z,11.36
2022-11-12T16:02:57.023Z,11.65
2022-11-12T16:06:08.645Z,11.91
2022-11-12T16:09:15.087Z,12.02
2022-11-12T16:12:21.146Z,12.08
2022-11-12T16:15:27.139Z,12.12
2022-11-12T16:18:32.776Z,12.14
2022-11-12T16:21:38.428Z,12.16
2022-11-12T16:24:44.775Z,12.15
2022-11-12T16:27:54.410Z,12.14
2022-11-12T16:31:01.338Z,12.10
2022-11-12T16:34:07.059Z,12.10
2022-11-12T16:37:14.001Z,12.10
2022-11-12T16:40:22.248Z,12.09
2022-11-12T16:43:28.190Z,12.07
2022-11-12T16:46:40.250Z,12.03
2022-11-12T16:49:45.860Z,11.87
2022-11-12T16:52:52.857Z,11.21
2022-11-12T16:55:59.262Z,10.57
2022-11-12T16:59:05.686Z,10.06
2022-11-12T17:02:16.744Z,9.77
2022-11-12T17:05:24.464Z,10.02
2022-11-12T17:08:33.968Z,10.25
2022-11-12T17:11:40.568Z,10.38
2022-11-12T17:14:46.153Z,10.42
2022-11-12T17:17:54.117Z,10.45
2022-11-12T17:21:07.263Z,10.47
2022-11-12T17:24:12.964Z,10.50
2022-11-12T17:27:18.674Z,10.53
2022-11-12T17:30:24.324Z,10.56
2022-11-12T17:33:30.326Z,10.58
2022-11-12T17:36:40.587Z,10.57
2022-11-12T17:39:49.057Z,10.44
2022-11-12T17:42:55.225Z,10.30
2022-11-12T17:46:01.290Z,10.22
2022-11-12T17:49:07.044Z,10.16
2022-11-12T17:52:12.679Z,10.12
2022-11-12T17:55:18.475Z,10.08
2022-11-12T17:58:24.057Z,10.06
2022-11-12T18:01:31.242Z,10.02
2022-11-12T18:04:37.100Z,9.98
2022-11-12T18:07:42.796Z,9.97
2022-11-12T18:10:48.449Z,9.96
2022-11-12T18:13:54.203Z,9.97
2022-11-12T18:17:01.453Z,9.95
2022-11-12T18:20:09.693Z,9.93
2022-11-12T18:23:15.565Z,9.88
2022-11-12T18:26:21.930Z,9.83
2022-11-12T18:29:26.045Z,9.78
2022-11-12T18:32:31.897Z,9.71
2022-11-12T18:35:37.760Z,9.68
2022-11-12T18:50:49.181Z,8.78
2022-11-12T18:53:54.782Z,8.88
2022-11-12T18:57:00.435Z,8.96
2022-11-12T19:00:07.167Z,8.99
2022-11-12T19:03:12.836Z,8.98
2022-11-12T19:06:18.477Z,8.95
2022-11-12T19:09:24.049Z,8.87
2022-11-12T19:12:29.722Z,8.83
2022-11-12T19:15:36.391Z,8.80
2022-11-12T19:18:43.374Z,8.78
2022-11-12T19:21:49.591Z,8.75
2022-11-12T19:24:55.294Z,8.72
2022-11-12T19:28:00.916Z,8.70
2022-11-12T19:31:08.627Z,8.66
2022-11-12T19:34:14.399Z,8.62
2022-11-12T19:37:33.007Z,8.60
2022-11-12T19:40:39.782Z,8.58
2022-11-12T19:43:45.587Z,8.59
2022-11-12T19:46:51.341Z,8.58
2022-11-12T19:49:56.993Z,8.57
2022-11-12T19:53:02.852Z,8.53
2022-11-12T19:56:09.402Z,8.50
2022-11-12T19:59:15.177Z,8.46
2022-11-12T20:02:21.454Z,8.47
2022-11-12T20:05:25.663Z,8.51
2022-11-12T20:08:32.338Z,8.52
2022-11-12T20:11:38.195Z,8.57
2022-11-12T20:14:43.949Z,8.58
2022-11-12T20:17:49.854Z,8.58
2022-11-12T20:20:57.799Z,8.58
2022-11-12T20:24:03.439Z,8.60
2022-11-12T20:27:09.115Z,8.64
2022-11-12T20:30:16.185Z,8.70
2022-11-12T20:33:22.010Z,8.76
2022-11-12T20:36:27.707Z,8.82
2022-11-12T20:39:33.871Z,8.87
2022-11-12T20:42:41.304Z,8.92
2022-11-12T20:45:52.950Z,8.96
2022-11-12T20:48:58.611Z,9.01
2022-11-12T20:52:04.225Z,9.05
2022-11-12T20:55:11.010Z,9.09
2022-11-12T20:58:16.613Z,9.12
2022-11-12T21:01:24.060Z,9.16
2022-11-12T21:04:29.745Z,9.19
2022-11-12T21:07:35.434Z,9.23
2022-11-12T21:10:41.061Z,9.26
2022-11-12T21:13:46.776Z,9.28
2022-11-12T21:16:52.445Z,9.29
2022-11-12T21:19:58.096Z,9.31
2022-11-12T21:23:03.737Z,9.34
2022-11-12T21:26:12.877Z,9.35
2022-11-12T21:29:19.201Z,9.39
2022-11-12T21:32:24.883Z,9.42
2022-11-12T21:35:30.553Z,9.45
2022-11-12T21:38:36.236Z,9.47
2022-11-12T21:41:41.845Z,9.50
2022-11-12T21:44:47.445Z,9.53
2022-11-12T21:47:54.367Z,9.56
2022-11-12T21:51:06.313Z,9.60
2022-11-12T21:54:15.091Z,9.62
2022-11-12T21:57:20.765Z,9.64
2022-11-12T22:00:41.566Z,9.66
2022-11-12T22:03:48.437Z,9.69
2022-11-12T22:06:54.457Z,9.71
2022-11-12T22:10:00.163Z,9.74
2022-11-12T22:13:25.888Z,9.77
2022-11-12T22:16:31.560Z,9.80
2022-11-12T22:19:39.141Z,9.83
2022-11-12T22:22:44.758Z,9.86
2022-11-12T22:25:50.759Z,9.89
2022-11-12T22:28:58.018Z,9.90
2022-11-12T22:32:03.688Z,9.92
2022-11-12T22:35:10.948Z,9.94
2022-11-12T22:38:16.530Z,9.96
2022-11-12T22:41:24.362Z,9.98
2022-11-12T22:44:29.968Z,10.00
2022-11-12T22:47:35.632Z,10.02
2022-11-12T22:50:41.301Z,10.04
2022-11-12T22:53:47.250Z,10.06
2022-11-12T22:56:52.849Z,10.08
2022-11-12T22:59:58.701Z,10.09
2022-11-12T23:03:04.326Z,10.10
2022-11-12T23:06:10.263Z,10.11
2022-11-12T23:09:18.524Z,10.14
2022-11-12T23:12:24.143Z,10.17
2022-11-12T23:15:32.590Z,10.20
2022-11-12T23:18:38.298Z,10.22
2022-11-12T23:21:43.947Z,10.26
2022-11-12T23:24:49.569Z,10.28
2022-11-12T23:27:55.795Z,10.32
2022-11-12T23:30:59.877Z,10.35
2022-11-12T23:34:05.631Z,10.36
2022-11-12T23:37:11.287Z,10.41
2022-11-12T23:40:17.974Z,10.45
2022-11-12T23:43:23.816Z,10.48
2022-11-12T23:46:29.571Z,10.52
2022-11-12T23:49:35.348Z,10.55
2022-11-12T23:52:40.976Z,10.58
2022-11-12T23:55:46.853Z,10.60
2022-11-12T23:58:56.035Z,10.61
